Cadley, Georgia
Current Conditions -  °F | °C
As of 12:35 AM on Tuesday 27 Jan 2015 (Local Time) from KHQU Reporting Station
Clear Clear  
Wind Chill: 31°   Ceiling: Unl
Heat Index: 37°   Visibility: 10mi
Dew Point: 31°   Wind: 8mph
Humidity: 77%   Direction: 260°W
Pressure: 29.91"   Gusts: NA
Location:  33.4918°N, 82.7343°W
Report Text: KHQU 270535Z AUTO 26007KT 10SM CLR 03/M01 A2991 RMK AO1 T00301006
Loading
Personal Weather Stations






























Interactive Weather Map New forecast layout! Learn more

10-Day Weather Forecast

Advertisements
Track Severe Weather on mobile